Onalaska, Washington
Current Conditions -  °F | °C
As of 11:35 AM on Friday 28 Nov 2014 (Local Time) from KCLS Reporting Station
Broken Clouds Broken Clouds  
Wind Chill: 55°   Ceiling: 3700
Heat Index: 55°   Visibility: 10mi
Dew Point: 54°   Wind: 14mph
Humidity: 94%   Direction: 170°S
Pressure: 29.47"   Gusts: NA
Location:  46.58°N, 122.72°W
Report Text: KCLS 281935Z AUTO 17012KT 10SM FEW029 BKN037 BKN045 13/12 A2947 RMK AO2
Loading
Personal Weather Stations






























Interactive Weather Map New forecast layout! Learn more

10-Day Weather Forecast

Advertisements
Track Severe Weather on mobile